Cabo San Lucas International Airport
MMSL : now visible

Airfield :











YOU CAN JOIN US ON...

 
LOGIN :

Register | Disclaimer

   EN    FR    IT 

 









Legend :    VFR   Marginal VFR   IFR   Intensive IFR   Very Intensive IFR
Visi :
Ceiling :
>= 8 km
>= 3000ft
5 to 8 km
1000 to 3000 ft
1500m to 5 km
500 to 1000 ft
800 to 1500m
200 to 500 ft
< 800m
< 200 ft
Symbols :   Thunderstorms  Fog  Heavy snow  Heavy precipitations  Wind > 20 kt






- Airport Elevation : 459 ft
- IATA code : CSL


MMSL - Cabo San Lucas International

CURRENT METAR :
  • 272347Z 26011KT 10SM SCT040 21/14 A3005 RMK 8/400 MDT CU

EXPIRED METARs :
  • 272244Z 25012KT 10SM FEW040 22/14 A3004 RMK 8/100
  • 272149Z 26012KT 10SM FEW040 22/14 A3004 RMK 8/100

TAF TAF MMSL
Valid from the 27 at 18:00 until the 28 at 18:00 UTC


271633Z 2718/2818 14010KT P6SM SCT030
BECMG 2721/2722 BKN030
FM280400 32006KT P6SM SCT015
BECMG 2806/2807 SKC
FM281700 16006KT P6SM SKC



MET'MAP, your aeronautical weather chart ! - Copyright ORBIFLY December 2007 - Disclaimer

ORBIFLY MET'MAP TEAM :

Programming & Development : Alexandra Zaïnal
Concept & original design : Baudouin d'Aumeries
Assistance for programming : Marc-Olivier Méhu
Technical & hardware support : Manuel Goepfert

Contact : metmap@orbifly.com




SOURCES & CREDITS :

   NOAA       Earth
Advisory